This is the latest recevied weather packets stored in our database for station/object K0PFX-8. If no packets are shown the sender has not sent any weather packets the latest 10 day(s).
| Time | Temp. | Humidity | Pressure | Rain* | Wind** | Luminosity | Snow |
|---|---|---|---|---|---|---|---|
| 1778206726 | 13.89° C | 58% | 1014.3 hPa | 0 mm | 0 m/s | - | - |
| 1778205825 | 14.44° C | 58% | 1014.2 hPa | 0 mm | 0 m/s | - | - |
| 1778204926 | 15° C | 49% | 1014 hPa | 0 mm | 0 m/s | - | - |
| 1778204025 | 15.56° C | 47% | 1014 hPa | 0 mm | 0 m/s | - | - |
| 1778203126 | 16.67° C | 42% | 1013.9 hPa | 0 mm | 0 m/s | - | - |
| 1778202225 | 17.22° C | 38% | 1013.7 hPa | 0 mm | 0 m/s | - | - |
| 1778201326 | 18.33° C | 34% | 1013.6 hPa | 0 mm | 0.45 m/s, 243° | - | - |
| 1778200425 | 18.33° C | 32% | 1013.6 hPa | 0 mm | 2.24 m/s, 239° | - | - |
| 1778199526 | 18.33° C | 31% | 1013.6 hPa | 0 mm | 2.24 m/s, 243° | - | - |
| 1778198625 | 18.33° C | 33% | 1013.6 hPa | 0 mm | 2.68 m/s, 255° | - | - |
| 1778197726 | 18.33° C | 31% | 1013.7 hPa | 0 mm | 3.58 m/s, 260° | - | - |
| 1778196823 | 18.33° C | 31% | 1013.6 hPa | 0 mm | 4.47 m/s, 243° | - | - |
| 1778195925 | 18.89° C | 32% | 1013.7 hPa | 0 mm | 6.26 m/s, 243° | - | - |
| 1778195024 | 18.89° C | 30% | 1013.7 hPa | 0 mm | 4.47 m/s, 232° | - | - |
| 1778194125 | 18.89° C | 27% | 1013.8 hPa | 0 mm | 6.26 m/s, 248° | - | - |
| 1778193224 | 19.44° C | 31% | 1013.9 hPa | 0 mm | 3.58 m/s, 260° | - | - |
| 1778192326 | 19.44° C | 31% | 1013.9 hPa | 0 mm | 3.13 m/s, 231° | - | - |
| 1778191424 | 19.44° C | 31% | 1013.9 hPa | 0 mm | 4.47 m/s, 231° | - | - |
| 1778190526 | 20.56° C | 29% | 1013.9 hPa | 0 mm | 5.36 m/s, 236° | - | - |
| 1778189625 | 20° C | 31% | 1014 hPa | 0 mm | 4.92 m/s, 233° | - | - |
| 1778188726 | 19.44° C | 30% | 1014.1 hPa | 0 mm | 6.71 m/s, 239° | - | - |
| 1778187825 | 19.44° C | 32% | 1014.4 hPa | 0 mm | 3.58 m/s, 242° | - | - |
| 1778186927 | 19.44° C | 31% | 1014.6 hPa | 0 mm | 4.47 m/s, 236° | - | - |
| 1778186025 | 18.89° C | 30% | 1014.9 hPa | 0 mm | 4.47 m/s, 250° | - | - |
| 1778185127 | 17.78° C | 32% | 1015.3 hPa | 0 mm | 4.02 m/s, 224° | - | - |
* Rain latest hour (hover to see other rain measurements)
** Current wind speed in m/s (hover to see current wind gust speed)